الصفحة الرئيسية
METAR-TAF:

METAR-TAF

مطار :

Río Hato, بنما

دائرة عرض: 08-22-33N, خط طول: 080-07-40W, ارتفاع: 32 متر

مراقبة الطقس الحالي

تاريخ ووقت الإصدار 5ساعات و 4 دقيقة قبل الساعة 21:00UTC
ريح 8 عقدة من الغرب
درجة الحرارة 24°درجة مئوية
الرطوبة 94%
ضغط 1007 hPa
الرؤية: 8000 متر
غيوم قليلة على ارتفاع 500 قدم
غيوم متفرقة على ارتفاع 1500 قدم
غيوم مفككة على ارتفاع 8000 قدم
مطر خفيف

METAR: MPSM 242100Z 28008KT(E) 8000 -RA FEW005 SCT015 BKN080 24/23 Q1007 RWY DAMP

زمن: 21:04 (02:04 UTC)

توقعات

تاريخ ووقت الإصدار 9ساعات و 34 دقيقة قبل الساعة 16:30UTC
التوقعات صالحة من24 الساعة 18 UTC إلى 25 الساعة 24 UTC
ريح 6 عقدة من الشمال الغربي
الرؤية: 7000 متر
غيوم قليلة على ارتفاع 1500 قدم, مزنة ركامية.
غيوم متفرقة على ارتفاع 10000 قدم
عاصفة رعدية, مطر
مؤقت
من 24 الساعة 21 UTC إلى 24 الساعة 24 UTC
ريح 8 عقدة من الغرب/الشمال الغربي
الرؤية: 7000 متر
غيوم متفرقة على ارتفاع 1500 قدم
غيوم متفرقة على ارتفاع 8000 قدم
مطر

TAF: MPSM 241630Z 2418/2524 32006KT 7000 TSRA FEW015CB SCT100 TEMPO 2421/2424 30008KT 7000 RA SCT015 SCT080

أرصاد الطقس والتوقعات من أكثر من 4000 مطار (تقارير الطقس للمطار METAR والتنبؤ بالطقس بالمطارTAF).

المحطات المتاحة هي النقط الصفراء والحمراء على الخريطة.

حرك المؤشر فوق النقطة لمعرفة اسم المحطة.

ثم انقر لمعرفة أرصاد وتوقعات الطقس.

لتغيير الخارطة: اضغط على الأزرار الخضراء مع رمز الصليب الأسود للتكبير. على الزر الأخضر مع شرطة للتصغير، أو على الأسهم الخضراء للخرائط المجاورة.


METAR-TAF: